sensor_id;sensor_type;location;lat;lon;timestamp;P1;durP1;ratioP1;P2;durP2;ratioP2
66169;SDS011;66757;44.024;20.456;2023-04-20T00:02:08;15.80;;;10.65;;
66169;SDS011;66757;44.024;20.456;2023-04-20T00:04:33;15.88;;;10.75;;
66169;SDS011;66757;44.024;20.456;2023-04-20T00:06:59;15.18;;;10.40;;
66169;SDS011;66757;44.024;20.456;2023-04-20T00:09:25;15.63;;;10.05;;
66169;SDS011;66757;44.024;20.456;2023-04-20T00:11:51;14.77;;;8.82;;
66169;SDS011;66757;44.024;20.456;2023-04-20T00:14:16;16.50;;;10.68;;
66169;SDS011;66757;44.024;20.456;2023-04-20T00:16:42;17.27;;;10.38;;
66169;SDS011;66757;44.024;20.456;2023-04-20T00:19:08;17.40;;;12.85;;
66169;SDS011;66757;44.024;20.456;2023-04-20T00:21:33;14.90;;;11.02;;
66169;SDS011;66757;44.024;20.456;2023-04-20T00:23:58;17.60;;;11.82;;
66169;SDS011;66757;44.024;20.456;2023-04-20T00:26:24;17.13;;;11.43;;
66169;SDS011;66757;44.024;20.456;2023-04-20T00:28:50;16.35;;;11.02;;
66169;SDS011;66757;44.024;20.456;2023-04-20T00:31:15;14.00;;;10.18;;
66169;SDS011;66757;44.024;20.456;2023-04-20T00:36:32;22.27;;;15.20;;
66169;SDS011;66757;44.024;20.456;2023-04-20T00:38:57;19.52;;;13.68;;
66169;SDS011;66757;44.024;20.456;2023-04-20T00:41:26;21.90;;;13.77;;
66169;SDS011;66757;44.024;20.456;2023-04-20T00:43:51;24.52;;;13.85;;
66169;SDS011;66757;44.024;20.456;2023-04-20T00:46:17;22.38;;;14.93;;
66169;SDS011;66757;44.024;20.456;2023-04-20T00:48:43;22.02;;;15.10;;
66169;SDS011;66757;44.024;20.456;2023-04-20T00:51:08;26.27;;;17.77;;
66169;SDS011;66757;44.024;20.456;2023-04-20T00:53:33;33.33;;;19.13;;
66169;SDS011;66757;44.024;20.456;2023-04-20T00:55:59;31.40;;;20.10;;
66169;SDS011;66757;44.024;20.456;2023-04-20T00:58:24;34.67;;;21.05;;
66169;SDS011;66757;44.024;20.456;2023-04-20T01:00:49;30.95;;;20.45;;
66169;SDS011;66757;44.024;20.456;2023-04-20T01:03:15;31.10;;;21.48;;
66169;SDS011;66757;44.024;20.456;2023-04-20T01:05:40;30.23;;;21.20;;
66169;SDS011;66757;44.024;20.456;2023-04-20T01:08:05;30.52;;;20.83;;
66169;SDS011;66757;44.024;20.456;2023-04-20T01:10:32;29.55;;;20.30;;
66169;SDS011;66757;44.024;20.456;2023-04-20T01:12:57;27.60;;;20.33;;
66169;SDS011;66757;44.024;20.456;2023-04-20T01:15:23;29.83;;;20.23;;
66169;SDS011;66757;44.024;20.456;2023-04-20T01:17:48;31.75;;;21.92;;
66169;SDS011;66757;44.024;20.456;2023-04-20T01:20:13;32.53;;;21.55;;
66169;SDS011;66757;44.024;20.456;2023-04-20T01:22:48;30.05;;;21.80;;
66169;SDS011;66757;44.024;20.456;2023-04-20T01:25:15;33.67;;;22.08;;
66169;SDS011;66757;44.024;20.456;2023-04-20T01:27:40;34.35;;;22.70;;
66169;SDS011;66757;44.024;20.456;2023-04-20T01:30:06;30.90;;;22.40;;
66169;SDS011;66757;44.024;20.456;2023-04-20T01:32:32;34.50;;;23.05;;
66169;SDS011;66757;44.024;20.456;2023-04-20T01:34:59;31.65;;;22.70;;
66169;SDS011;66757;44.024;20.456;2023-04-20T01:37:24;34.67;;;23.23;;
66169;SDS011;66757;44.024;20.456;2023-04-20T01:39:50;34.33;;;24.20;;
66169;SDS011;66757;44.024;20.456;2023-04-20T01:42:17;32.97;;;24.25;;
66169;SDS011;66757;44.024;20.456;2023-04-20T01:44:43;31.40;;;22.92;;
66169;SDS011;66757;44.024;20.456;2023-04-20T01:47:09;35.28;;;22.95;;
66169;SDS011;66757;44.024;20.456;2023-04-20T01:49:34;32.08;;;23.08;;
66169;SDS011;66757;44.024;20.456;2023-04-20T01:54:48;37.97;;;25.55;;
66169;SDS011;66757;44.024;20.456;2023-04-20T01:57:13;33.65;;;23.55;;
66169;SDS011;66757;44.024;20.456;2023-04-20T01:59:39;36.97;;;25.50;;
66169;SDS011;66757;44.024;20.456;2023-04-20T02:02:04;40.45;;;25.70;;
66169;SDS011;66757;44.024;20.456;2023-04-20T02:04:30;34.58;;;22.48;;
66169;SDS011;66757;44.024;20.456;2023-04-20T02:06:55;24.23;;;18.20;;
66169;SDS011;66757;44.024;20.456;2023-04-20T02:09:20;30.80;;;20.25;;
66169;SDS011;66757;44.024;20.456;2023-04-20T02:11:46;27.13;;;18.20;;
66169;SDS011;66757;44.024;20.456;2023-04-20T02:14:11;29.77;;;17.73;;
66169;SDS011;66757;44.024;20.456;2023-04-20T02:16:36;21.63;;;16.23;;
66169;SDS011;66757;44.024;20.456;2023-04-20T02:19:02;23.13;;;16.42;;
66169;SDS011;66757;44.024;20.456;2023-04-20T02:21:29;27.08;;;16.88;;
66169;SDS011;66757;44.024;20.456;2023-04-20T02:23:55;22.80;;;15.00;;
66169;SDS011;66757;44.024;20.456;2023-04-20T02:26:21;25.13;;;15.30;;
66169;SDS011;66757;44.024;20.456;2023-04-20T02:28:48;20.40;;;14.98;;
66169;SDS011;66757;44.024;20.456;2023-04-20T02:31:13;23.27;;;14.77;;
66169;SDS011;66757;44.024;20.456;2023-04-20T02:33:41;23.98;;;15.07;;
66169;SDS011;66757;44.024;20.456;2023-04-20T02:36:06;34.58;;;18.80;;
66169;SDS011;66757;44.024;20.456;2023-04-20T02:38:32;33.17;;;20.30;;
66169;SDS011;66757;44.024;20.456;2023-04-20T02:40:58;36.63;;;23.40;;
66169;SDS011;66757;44.024;20.456;2023-04-20T02:43:23;33.20;;;23.02;;
66169;SDS011;66757;44.024;20.456;2023-04-20T02:45:48;46.22;;;29.25;;
66169;SDS011;66757;44.024;20.456;2023-04-20T02:48:14;41.35;;;26.08;;
66169;SDS011;66757;44.024;20.456;2023-04-20T02:50:40;36.63;;;23.65;;
66169;SDS011;66757;44.024;20.456;2023-04-20T02:53:05;40.83;;;27.02;;
66169;SDS011;66757;44.024;20.456;2023-04-20T02:55:31;37.97;;;24.73;;
66169;SDS011;66757;44.024;20.456;2023-04-20T02:57:56;38.65;;;25.75;;
66169;SDS011;66757;44.024;20.456;2023-04-20T03:00:21;43.33;;;27.77;;
66169;SDS011;66757;44.024;20.456;2023-04-20T03:02:47;36.10;;;24.27;;
66169;SDS011;66757;44.024;20.456;2023-04-20T03:05:12;35.88;;;24.48;;
66169;SDS011;66757;44.024;20.456;2023-04-20T03:07:38;35.42;;;24.42;;
66169;SDS011;66757;44.024;20.456;2023-04-20T03:10:04;38.80;;;24.10;;
66169;SDS011;66757;44.024;20.456;2023-04-20T03:12:30;36.10;;;23.05;;
66169;SDS011;66757;44.024;20.456;2023-04-20T03:14:56;34.28;;;23.90;;
66169;SDS011;66757;44.024;20.456;2023-04-20T03:17:21;30.63;;;22.15;;
66169;SDS011;66757;44.024;20.456;2023-04-20T03:19:46;31.83;;;22.83;;
66169;SDS011;66757;44.024;20.456;2023-04-20T03:22:12;30.92;;;21.10;;
66169;SDS011;66757;44.024;20.456;2023-04-20T03:24:37;30.88;;;20.58;;
66169;SDS011;66757;44.024;20.456;2023-04-20T03:27:02;27.05;;;18.00;;
66169;SDS011;66757;44.024;20.456;2023-04-20T03:29:28;28.75;;;19.25;;
66169;SDS011;66757;44.024;20.456;2023-04-20T03:34:22;31.80;;;18.48;;
66169;SDS011;66757;44.024;20.456;2023-04-20T03:36:48;33.20;;;20.75;;
66169;SDS011;66757;44.024;20.456;2023-04-20T03:39:14;32.00;;;21.13;;
66169;SDS011;66757;44.024;20.456;2023-04-20T03:41:40;33.60;;;20.50;;
66169;SDS011;66757;44.024;20.456;2023-04-20T03:44:07;33.42;;;21.38;;
66169;SDS011;66757;44.024;20.456;2023-04-20T03:46:33;30.63;;;21.05;;
66169;SDS011;66757;44.024;20.456;2023-04-20T03:48:58;32.58;;;21.90;;
66169;SDS011;66757;44.024;20.456;2023-04-20T03:51:23;32.15;;;21.20;;
66169;SDS011;66757;44.024;20.456;2023-04-20T03:53:49;33.78;;;21.55;;
66169;SDS011;66757;44.024;20.456;2023-04-20T03:56:14;38.22;;;22.17;;
66169;SDS011;66757;44.024;20.456;2023-04-20T03:58:39;31.45;;;21.75;;
66169;SDS011;66757;44.024;20.456;2023-04-20T04:01:05;29.92;;;21.60;;
66169;SDS011;66757;44.024;20.456;2023-04-20T04:03:32;32.75;;;20.70;;
66169;SDS011;66757;44.024;20.456;2023-04-20T04:05:59;26.88;;;17.75;;
66169;SDS011;66757;44.024;20.456;2023-04-20T04:08:25;20.95;;;15.68;;
66169;SDS011;66757;44.024;20.456;2023-04-20T04:10:50;32.28;;;18.67;;
66169;SDS011;66757;44.024;20.456;2023-04-20T04:13:16;30.42;;;18.52;;
66169;SDS011;66757;44.024;20.456;2023-04-20T04:15:42;29.92;;;18.10;;
66169;SDS011;66757;44.024;20.456;2023-04-20T04:18:07;26.27;;;18.98;;
66169;SDS011;66757;44.024;20.456;2023-04-20T04:20:33;31.25;;;21.02;;
66169;SDS011;66757;44.024;20.456;2023-04-20T04:22:58;33.65;;;21.75;;
66169;SDS011;66757;44.024;20.456;2023-04-20T04:25:23;30.75;;;21.13;;
66169;SDS011;66757;44.024;20.456;2023-04-20T04:27:49;30.10;;;19.92;;
66169;SDS011;66757;44.024;20.456;2023-04-20T04:30:16;26.83;;;19.23;;
66169;SDS011;66757;44.024;20.456;2023-04-20T04:32:41;24.02;;;18.58;;
66169;SDS011;66757;44.024;20.456;2023-04-20T04:35:08;34.22;;;19.90;;
66169;SDS011;66757;44.024;20.456;2023-04-20T04:37:34;29.13;;;19.92;;
66169;SDS011;66757;44.024;20.456;2023-04-20T04:39:59;30.13;;;19.92;;
66169;SDS011;66757;44.024;20.456;2023-04-20T04:42:26;28.35;;;19.45;;
66169;SDS011;66757;44.024;20.456;2023-04-20T04:44:53;30.75;;;20.33;;
66169;SDS011;66757;44.024;20.456;2023-04-20T04:47:20;37.78;;;22.17;;
66169;SDS011;66757;44.024;20.456;2023-04-20T04:49:47;29.55;;;21.83;;
66169;SDS011;66757;44.024;20.456;2023-04-20T04:52:12;33.17;;;23.15;;
66169;SDS011;66757;44.024;20.456;2023-04-20T04:54:37;33.90;;;21.90;;
66169;SDS011;66757;44.024;20.456;2023-04-20T04:57:03;31.15;;;21.73;;
66169;SDS011;66757;44.024;20.456;2023-04-20T04:59:28;32.65;;;21.77;;
66169;SDS011;66757;44.024;20.456;2023-04-20T05:01:53;30.48;;;21.23;;
66169;SDS011;66757;44.024;20.456;2023-04-20T05:04:19;27.65;;;21.17;;
66169;SDS011;66757;44.024;20.456;2023-04-20T05:06:44;30.77;;;22.02;;
66169;SDS011;66757;44.024;20.456;2023-04-20T05:09:09;34.72;;;23.60;;
66169;SDS011;66757;44.024;20.456;2023-04-20T05:11:35;37.65;;;25.42;;
66169;SDS011;66757;44.024;20.456;2023-04-20T05:14:00;33.47;;;25.08;;
66169;SDS011;66757;44.024;20.456;2023-04-20T05:16:27;42.55;;;28.48;;
66169;SDS011;66757;44.024;20.456;2023-04-20T05:18:53;40.20;;;27.73;;
66169;SDS011;66757;44.024;20.456;2023-04-20T05:21:18;34.03;;;21.98;;
66169;SDS011;66757;44.024;20.456;2023-04-20T05:23:43;31.42;;;20.70;;
66169;SDS011;66757;44.024;20.456;2023-04-20T05:26:09;30.92;;;20.73;;
66169;SDS011;66757;44.024;20.456;2023-04-20T05:28:34;29.67;;;19.17;;
66169;SDS011;66757;44.024;20.456;2023-04-20T05:30:59;29.30;;;20.75;;
66169;SDS011;66757;44.024;20.456;2023-04-20T05:33:25;32.80;;;20.90;;
66169;SDS011;66757;44.024;20.456;2023-04-20T05:35:54;28.13;;;20.50;;
66169;SDS011;66757;44.024;20.456;2023-04-20T05:40:49;31.67;;;20.52;;
66169;SDS011;66757;44.024;20.456;2023-04-20T05:43:15;29.15;;;21.77;;
66169;SDS011;66757;44.024;20.456;2023-04-20T05:45:41;28.98;;;19.85;;
66169;SDS011;66757;44.024;20.456;2023-04-20T05:48:08;30.77;;;20.63;;
66169;SDS011;66757;44.024;20.456;2023-04-20T05:50:34;30.70;;;21.35;;
66169;SDS011;66757;44.024;20.456;2023-04-20T05:52:59;41.33;;;26.50;;
66169;SDS011;66757;44.024;20.456;2023-04-20T05:55:25;60.33;;;40.22;;
66169;SDS011;66757;44.024;20.456;2023-04-20T05:57:57;24.25;;;17.33;;
66169;SDS011;66757;44.024;20.456;2023-04-20T06:00:22;20.70;;;14.63;;
66169;SDS011;66757;44.024;20.456;2023-04-20T06:02:50;14.73;;;9.32;;
66169;SDS011;66757;44.024;20.456;2023-04-20T06:05:15;10.65;;;7.60;;
66169;SDS011;66757;44.024;20.456;2023-04-20T06:07:42;10.10;;;7.57;;
66169;SDS011;66757;44.024;20.456;2023-04-20T06:10:08;10.35;;;6.50;;
66169;SDS011;66757;44.024;20.456;2023-04-20T06:12:34;17.15;;;7.93;;
66169;SDS011;66757;44.024;20.456;2023-04-20T06:14:59;15.18;;;10.23;;
66169;SDS011;66757;44.024;20.456;2023-04-20T06:17:25;14.98;;;10.40;;
66169;SDS011;66757;44.024;20.456;2023-04-20T06:19:50;19.30;;;11.50;;
66169;SDS011;66757;44.024;20.456;2023-04-20T06:22:16;19.58;;;12.45;;
66169;SDS011;66757;44.024;20.456;2023-04-20T06:24:42;20.95;;;13.20;;
66169;SDS011;66757;44.024;20.456;2023-04-20T06:27:08;24.98;;;11.32;;
66169;SDS011;66757;44.024;20.456;2023-04-20T06:29:33;24.33;;;9.50;;
66169;SDS011;66757;44.024;20.456;2023-04-20T06:31:59;11.75;;;8.05;;
66169;SDS011;66757;44.024;20.456;2023-04-20T06:34:26;12.40;;;8.40;;
66169;SDS011;66757;44.024;20.456;2023-04-20T06:36:53;18.25;;;10.43;;
66169;SDS011;66757;44.024;20.456;2023-04-20T06:39:19;12.25;;;8.45;;
66169;SDS011;66757;44.024;20.456;2023-04-20T06:41:46;19.60;;;7.93;;
66169;SDS011;66757;44.024;20.456;2023-04-20T06:44:11;11.90;;;8.30;;
66169;SDS011;66757;44.024;20.456;2023-04-20T06:49:05;17.75;;;9.05;;
66169;SDS011;66757;44.024;20.456;2023-04-20T06:51:30;10.93;;;7.55;;
66169;SDS011;66757;44.024;20.456;2023-04-20T06:53:56;11.07;;;8.00;;
66169;SDS011;66757;44.024;20.456;2023-04-20T06:56:21;22.92;;;10.13;;
66169;SDS011;66757;44.024;20.456;2023-04-20T06:58:47;13.75;;;8.07;;
66169;SDS011;66757;44.024;20.456;2023-04-20T07:01:12;18.63;;;10.13;;
66169;SDS011;66757;44.024;20.456;2023-04-20T07:03:37;12.75;;;9.00;;
66169;SDS011;66757;44.024;20.456;2023-04-20T07:06:03;16.27;;;9.80;;
66169;SDS011;66757;44.024;20.456;2023-04-20T07:08:28;12.40;;;8.98;;
66169;SDS011;66757;44.024;20.456;2023-04-20T07:10:53;12.50;;;8.98;;
66169;SDS011;66757;44.024;20.456;2023-04-20T07:13:19;14.05;;;8.60;;
66169;SDS011;66757;44.024;20.456;2023-04-20T07:15:44;10.05;;;8.48;;
66169;SDS011;66757;44.024;20.456;2023-04-20T07:18:10;18.85;;;8.77;;
66169;SDS011;66757;44.024;20.456;2023-04-20T07:20:35;14.95;;;9.95;;
66169;SDS011;66757;44.024;20.456;2023-04-20T07:23:00;15.98;;;9.10;;
66169;SDS011;66757;44.024;20.456;2023-04-20T07:25:26;11.88;;;8.35;;
66169;SDS011;66757;44.024;20.456;2023-04-20T07:27:51;11.85;;;7.70;;
66169;SDS011;66757;44.024;20.456;2023-04-20T07:30:17;12.38;;;7.82;;
66169;SDS011;66757;44.024;20.456;2023-04-20T07:32:42;9.48;;;7.78;;
66169;SDS011;66757;44.024;20.456;2023-04-20T07:35:08;10.57;;;8.30;;
66169;SDS011;66757;44.024;20.456;2023-04-20T07:37:33;11.10;;;7.55;;
66169;SDS011;66757;44.024;20.456;2023-04-20T07:39:59;15.50;;;6.72;;
66169;SDS011;66757;44.024;20.456;2023-04-20T07:42:24;13.80;;;8.10;;
66169;SDS011;66757;44.024;20.456;2023-04-20T07:44:50;14.32;;;8.38;;
66169;SDS011;66757;44.024;20.456;2023-04-20T07:47:16;13.45;;;8.45;;
66169;SDS011;66757;44.024;20.456;2023-04-20T07:49:43;9.95;;;7.65;;
66169;SDS011;66757;44.024;20.456;2023-04-20T07:52:09;9.57;;;7.18;;
66169;SDS011;66757;44.024;20.456;2023-04-20T07:54:34;16.63;;;7.32;;
66169;SDS011;66757;44.024;20.456;2023-04-20T07:56:59;11.68;;;7.10;;
66169;SDS011;66757;44.024;20.456;2023-04-20T07:59:25;15.05;;;7.30;;
66169;SDS011;66757;44.024;20.456;2023-04-20T08:01:51;12.07;;;5.72;;
66169;SDS011;66757;44.024;20.456;2023-04-20T08:04:16;10.10;;;7.43;;
66169;SDS011;66757;44.024;20.456;2023-04-20T08:06:42;9.00;;;6.30;;
66169;SDS011;66757;44.024;20.456;2023-04-20T08:09:07;8.48;;;5.78;;
66169;SDS011;66757;44.024;20.456;2023-04-20T08:11:32;11.32;;;6.18;;
66169;SDS011;66757;44.024;20.456;2023-04-20T08:13:58;6.35;;;5.53;;
66169;SDS011;66757;44.024;20.456;2023-04-20T08:16:23;12.60;;;5.82;;
66169;SDS011;66757;44.024;20.456;2023-04-20T08:18:49;13.10;;;5.47;;
66169;SDS011;66757;44.024;20.456;2023-04-20T08:21:15;7.60;;;5.82;;
66169;SDS011;66757;44.024;20.456;2023-04-20T08:23:40;7.95;;;5.30;;
66169;SDS011;66757;44.024;20.456;2023-04-20T08:26:06;6.15;;;5.15;;
66169;SDS011;66757;44.024;20.456;2023-04-20T08:28:31;7.57;;;5.50;;
66169;SDS011;66757;44.024;20.456;2023-04-20T08:30:56;17.95;;;5.70;;
66169;SDS011;66757;44.024;20.456;2023-04-20T08:33:22;6.28;;;5.18;;
66169;SDS011;66757;44.024;20.456;2023-04-20T08:35:49;8.13;;;5.57;;
66169;SDS011;66757;44.024;20.456;2023-04-20T08:38:14;6.32;;;5.13;;
66169;SDS011;66757;44.024;20.456;2023-04-20T08:40:40;7.03;;;4.60;;
66169;SDS011;66757;44.024;20.456;2023-04-20T08:43:05;14.40;;;7.22;;
66169;SDS011;66757;44.024;20.456;2023-04-20T08:45:30;14.35;;;8.23;;
66169;SDS011;66757;44.024;20.456;2023-04-20T08:48:01;8.55;;;5.15;;
66169;SDS011;66757;44.024;20.456;2023-04-20T08:50:28;7.28;;;4.20;;
66169;SDS011;66757;44.024;20.456;2023-04-20T08:52:54;6.78;;;3.83;;
66169;SDS011;66757;44.024;20.456;2023-04-20T08:55:19;6.00;;;4.22;;
66169;SDS011;66757;44.024;20.456;2023-04-20T08:57:46;5.68;;;4.45;;
66169;SDS011;66757;44.024;20.456;2023-04-20T09:00:12;5.53;;;4.15;;
66169;SDS011;66757;44.024;20.456;2023-04-20T09:02:47;10.25;;;4.50;;
66169;SDS011;66757;44.024;20.456;2023-04-20T09:05:14;8.85;;;5.50;;
66169;SDS011;66757;44.024;20.456;2023-04-20T09:07:49;5.97;;;4.40;;
66169;SDS011;66757;44.024;20.456;2023-04-20T09:12:40;9.65;;;5.10;;
66169;SDS011;66757;44.024;20.456;2023-04-20T09:15:06;6.20;;;4.68;;
66169;SDS011;66757;44.024;20.456;2023-04-20T09:17:33;7.78;;;5.18;;
66169;SDS011;66757;44.024;20.456;2023-04-20T09:19:58;10.25;;;5.78;;
66169;SDS011;66757;44.024;20.456;2023-04-20T09:22:31;6.03;;;3.05;;
66169;SDS011;66757;44.024;20.456;2023-04-20T09:24:57;5.63;;;4.47;;
66169;SDS011;66757;44.024;20.456;2023-04-20T09:27:22;3.33;;;2.35;;
66169;SDS011;66757;44.024;20.456;2023-04-20T09:29:57;5.13;;;2.50;;
66169;SDS011;66757;44.024;20.456;2023-04-20T09:32:22;5.57;;;2.90;;
66169;SDS011;66757;44.024;20.456;2023-04-20T09:34:48;6.05;;;4.28;;
66169;SDS011;66757;44.024;20.456;2023-04-20T09:37:14;8.07;;;4.60;;
66169;SDS011;66757;44.024;20.456;2023-04-20T09:39:42;9.70;;;5.10;;
66169;SDS011;66757;44.024;20.456;2023-04-20T09:42:10;8.50;;;3.70;;
66169;SDS011;66757;44.024;20.456;2023-04-20T09:44:36;6.05;;;2.97;;
66169;SDS011;66757;44.024;20.456;2023-04-20T09:47:02;15.82;;;4.28;;
66169;SDS011;66757;44.024;20.456;2023-04-20T09:49:27;14.65;;;6.22;;
66169;SDS011;66757;44.024;20.456;2023-04-20T09:51:53;10.15;;;5.78;;
66169;SDS011;66757;44.024;20.456;2023-04-20T09:54:19;9.70;;;5.80;;
66169;SDS011;66757;44.024;20.456;2023-04-20T09:56:45;6.72;;;5.00;;
66169;SDS011;66757;44.024;20.456;2023-04-20T09:59:10;6.03;;;4.78;;
66169;SDS011;66757;44.024;20.456;2023-04-20T10:01:37;6.03;;;4.10;;
66169;SDS011;66757;44.024;20.456;2023-04-20T10:04:05;5.30;;;2.88;;
66169;SDS011;66757;44.024;20.456;2023-04-20T10:06:32;9.00;;;3.63;;
66169;SDS011;66757;44.024;20.456;2023-04-20T10:09:02;3.55;;;2.97;;
66169;SDS011;66757;44.024;20.456;2023-04-20T10:11:31;10.50;;;5.97;;
66169;SDS011;66757;44.024;20.456;2023-04-20T10:13:57;6.95;;;5.10;;
66169;SDS011;66757;44.024;20.456;2023-04-20T10:16:23;7.45;;;4.00;;
66169;SDS011;66757;44.024;20.456;2023-04-20T10:18:59;6.53;;;3.80;;
66169;SDS011;66757;44.024;20.456;2023-04-20T10:21:25;5.03;;;3.15;;
66169;SDS011;66757;44.024;20.456;2023-04-20T10:23:51;9.25;;;4.20;;
66169;SDS011;66757;44.024;20.456;2023-04-20T10:26:17;6.38;;;3.80;;
66169;SDS011;66757;44.024;20.456;2023-04-20T10:28:42;4.30;;;3.35;;
66169;SDS011;66757;44.024;20.456;2023-04-20T10:31:09;7.68;;;3.33;;
66169;SDS011;66757;44.024;20.456;2023-04-20T10:33:54;4.13;;;3.53;;
66169;SDS011;66757;44.024;20.456;2023-04-20T10:36:21;6.65;;;5.35;;
66169;SDS011;66757;44.024;20.456;2023-04-20T10:38:47;13.02;;;8.23;;
66169;SDS011;66757;44.024;20.456;2023-04-20T10:41:12;13.02;;;6.75;;
66169;SDS011;66757;44.024;20.456;2023-04-20T10:43:38;7.22;;;4.28;;
66169;SDS011;66757;44.024;20.456;2023-04-20T10:48:47;7.82;;;4.75;;
66169;SDS011;66757;44.024;20.456;2023-04-20T10:51:13;9.48;;;5.13;;
66169;SDS011;66757;44.024;20.456;2023-04-20T10:53:38;7.65;;;4.53;;
66169;SDS011;66757;44.024;20.456;2023-04-20T10:56:03;5.30;;;4.13;;
66169;SDS011;66757;44.024;20.456;2023-04-20T10:58:29;6.82;;;4.80;;
66169;SDS011;66757;44.024;20.456;2023-04-20T11:00:58;10.93;;;5.22;;
66169;SDS011;66757;44.024;20.456;2023-04-20T11:03:25;7.13;;;4.85;;
66169;SDS011;66757;44.024;20.456;2023-04-20T11:05:51;7.25;;;6.28;;
66169;SDS011;66757;44.024;20.456;2023-04-20T11:08:16;14.68;;;6.78;;
66169;SDS011;66757;44.024;20.456;2023-04-20T11:10:42;6.10;;;4.25;;
66169;SDS011;66757;44.024;20.456;2023-04-20T11:13:20;5.25;;;4.47;;
66169;SDS011;66757;44.024;20.456;2023-04-20T11:15:46;6.90;;;4.40;;
66169;SDS011;66757;44.024;20.456;2023-04-20T11:18:11;4.97;;;4.00;;
66169;SDS011;66757;44.024;20.456;2023-04-20T11:20:37;6.93;;;4.18;;
66169;SDS011;66757;44.024;20.456;2023-04-20T11:23:13;6.88;;;3.70;;
66169;SDS011;66757;44.024;20.456;2023-04-20T11:26:01;10.68;;;4.28;;
66169;SDS011;66757;44.024;20.456;2023-04-20T11:28:25;7.65;;;4.65;;
66169;SDS011;66757;44.024;20.456;2023-04-20T11:30:54;10.93;;;8.55;;
66169;SDS011;66757;44.024;20.456;2023-04-20T11:33:29;14.30;;;9.07;;
66169;SDS011;66757;44.024;20.456;2023-04-20T11:35:58;10.10;;;6.57;;
66169;SDS011;66757;44.024;20.456;2023-04-20T11:38:31;6.03;;;4.20;;
66169;SDS011;66757;44.024;20.456;2023-04-20T11:40:56;9.10;;;6.93;;
66169;SDS011;66757;44.024;20.456;2023-04-20T11:43:25;8.38;;;5.68;;
66169;SDS011;66757;44.024;20.456;2023-04-20T11:45:51;10.05;;;5.53;;
66169;SDS011;66757;44.024;20.456;2023-04-20T11:48:16;9.68;;;6.28;;
66169;SDS011;66757;44.024;20.456;2023-04-20T11:50:42;7.97;;;5.75;;
66169;SDS011;66757;44.024;20.456;2023-04-20T11:53:08;17.00;;;8.52;;
66169;SDS011;66757;44.024;20.456;2023-04-20T11:55:34;6.93;;;5.97;;
66169;SDS011;66757;44.024;20.456;2023-04-20T11:57:59;13.00;;;7.95;;
66169;SDS011;66757;44.024;20.456;2023-04-20T12:00:24;8.52;;;5.35;;
66169;SDS011;66757;44.024;20.456;2023-04-20T12:02:51;10.15;;;4.97;;
66169;SDS011;66757;44.024;20.456;2023-04-20T12:05:16;7.13;;;5.50;;
66169;SDS011;66757;44.024;20.456;2023-04-20T12:07:41;15.85;;;6.40;;
66169;SDS011;66757;44.024;20.456;2023-04-20T12:10:07;14.55;;;12.50;;
66169;SDS011;66757;44.024;20.456;2023-04-20T12:12:33;7.28;;;5.55;;
66169;SDS011;66757;44.024;20.456;2023-04-20T12:14:58;9.15;;;4.90;;
66169;SDS011;66757;44.024;20.456;2023-04-20T12:17:23;7.88;;;6.00;;
66169;SDS011;66757;44.024;20.456;2023-04-20T12:19:49;8.05;;;5.75;;
66169;SDS011;66757;44.024;20.456;2023-04-20T12:22:15;9.98;;;4.93;;
66169;SDS011;66757;44.024;20.456;2023-04-20T12:27:09;7.57;;;4.70;;
66169;SDS011;66757;44.024;20.456;2023-04-20T12:29:35;12.35;;;5.72;;
66169;SDS011;66757;44.024;20.456;2023-04-20T12:32:00;8.77;;;5.75;;
66169;SDS011;66757;44.024;20.456;2023-04-20T12:34:25;10.23;;;7.70;;
66169;SDS011;66757;44.024;20.456;2023-04-20T12:36:51;11.77;;;7.32;;
66169;SDS011;66757;44.024;20.456;2023-04-20T12:39:16;13.18;;;9.25;;
66169;SDS011;66757;44.024;20.456;2023-04-20T12:41:41;8.35;;;6.82;;
66169;SDS011;66757;44.024;20.456;2023-04-20T12:44:07;24.42;;;8.38;;
66169;SDS011;66757;44.024;20.456;2023-04-20T12:46:32;14.52;;;7.65;;
66169;SDS011;66757;44.024;20.456;2023-04-20T12:48:57;10.90;;;6.30;;
66169;SDS011;66757;44.024;20.456;2023-04-20T12:51:23;11.15;;;4.57;;
66169;SDS011;66757;44.024;20.456;2023-04-20T12:53:48;6.03;;;4.90;;
66169;SDS011;66757;44.024;20.456;2023-04-20T12:56:13;8.80;;;7.30;;
66169;SDS011;66757;44.024;20.456;2023-04-20T12:58:39;8.43;;;5.43;;
66169;SDS011;66757;44.024;20.456;2023-04-20T13:01:04;15.15;;;9.23;;
66169;SDS011;66757;44.024;20.456;2023-04-20T13:03:30;11.90;;;6.40;;
66169;SDS011;66757;44.024;20.456;2023-04-20T13:05:55;14.70;;;10.10;;
66169;SDS011;66757;44.024;20.456;2023-04-20T13:08:21;9.52;;;7.93;;
66169;SDS011;66757;44.024;20.456;2023-04-20T13:10:46;8.38;;;5.68;;
66169;SDS011;66757;44.024;20.456;2023-04-20T13:13:11;5.82;;;4.95;;
66169;SDS011;66757;44.024;20.456;2023-04-20T13:15:37;6.57;;;4.53;;
66169;SDS011;66757;44.024;20.456;2023-04-20T13:18:02;12.15;;;5.57;;
66169;SDS011;66757;44.024;20.456;2023-04-20T13:20:28;7.70;;;5.72;;
66169;SDS011;66757;44.024;20.456;2023-04-20T13:22:55;7.80;;;5.90;;
66169;SDS011;66757;44.024;20.456;2023-04-20T13:25:23;7.38;;;5.10;;
66169;SDS011;66757;44.024;20.456;2023-04-20T13:27:49;7.78;;;4.65;;
66169;SDS011;66757;44.024;20.456;2023-04-20T13:30:14;9.52;;;5.60;;
66169;SDS011;66757;44.024;20.456;2023-04-20T13:32:40;9.35;;;5.75;;
66169;SDS011;66757;44.024;20.456;2023-04-20T13:35:06;12.63;;;5.63;;
66169;SDS011;66757;44.024;20.456;2023-04-20T13:37:31;18.70;;;8.68;;
66169;SDS011;66757;44.024;20.456;2023-04-20T13:39:57;17.30;;;8.40;;
66169;SDS011;66757;44.024;20.456;2023-04-20T13:42:23;17.05;;;7.22;;
66169;SDS011;66757;44.024;20.456;2023-04-20T13:44:48;7.85;;;5.10;;
66169;SDS011;66757;44.024;20.456;2023-04-20T13:47:13;11.10;;;7.18;;
66169;SDS011;66757;44.024;20.456;2023-04-20T13:49:40;14.90;;;7.93;;
66169;SDS011;66757;44.024;20.456;2023-04-20T13:52:06;6.38;;;5.78;;
66169;SDS011;66757;44.024;20.456;2023-04-20T13:54:31;10.02;;;6.47;;
66169;SDS011;66757;44.024;20.456;2023-04-20T13:56:57;7.70;;;4.53;;
66169;SDS011;66757;44.024;20.456;2023-04-20T13:59:22;7.28;;;4.57;;
66169;SDS011;66757;44.024;20.456;2023-04-20T14:01:49;6.75;;;4.38;;
66169;SDS011;66757;44.024;20.456;2023-04-20T14:04:15;8.27;;;5.22;;
66169;SDS011;66757;44.024;20.456;2023-04-20T14:06:40;18.92;;;7.63;;
66169;SDS011;66757;44.024;20.456;2023-04-20T14:09:06;13.75;;;7.07;;
66169;SDS011;66757;44.024;20.456;2023-04-20T14:11:32;9.57;;;6.10;;
66169;SDS011;66757;44.024;20.456;2023-04-20T14:13:58;7.75;;;6.13;;
66169;SDS011;66757;44.024;20.456;2023-04-20T14:16:23;8.20;;;7.10;;
66169;SDS011;66757;44.024;20.456;2023-04-20T14:18:49;8.98;;;5.85;;
66169;SDS011;66757;44.024;20.456;2023-04-20T14:21:14;8.98;;;6.85;;
66169;SDS011;66757;44.024;20.456;2023-04-20T14:23:39;16.33;;;8.45;;
66169;SDS011;66757;44.024;20.456;2023-04-20T14:26:05;10.27;;;7.18;;
66169;SDS011;66757;44.024;20.456;2023-04-20T14:28:32;7.07;;;4.32;;
66169;SDS011;66757;44.024;20.456;2023-04-20T14:31:00;4.78;;;3.75;;
66169;SDS011;66757;44.024;20.456;2023-04-20T14:33:25;25.00;;;15.70;;
66169;SDS011;66757;44.024;20.456;2023-04-20T14:35:51;8.77;;;6.78;;